Time;durP1;ratioP1;P1;durP2;ratioP2;P2;SDS_P1;SDS_P2;PMS_P1;PMS_P2;Temp;Humidity;BMP_temperature;BMP_pressure;BME280_temperature;BME280_humidity;BME280_pressure;Samples;Min_cycle;Max_cycle;Signal;HPM_P1;HPM_P2
2023/04/30 00:00:23;;;;;;;31.60;23.60;;;;;;;;;;137391;1272;22376;-82
2023/04/30 00:03:44;;;;;;;32.20;24.00;;;;;;;;;;137486;1272;22288;-82
2023/04/30 00:06:45;;;;;;;32.00;22.50;;;;;;;;;;137625;1272;22239;-81
2023/04/30 00:09:46;;;;;;;29.80;22.50;;;;;;;;;;137382;1272;22166;-82
2023/04/30 00:12:50;;;;;;;26.20;20.40;;;;;;;;;;137461;1272;22223;-82
2023/04/30 00:15:51;;;;;;;26.40;20.70;;;;;;;;;;137588;1272;22233;-82
2023/04/30 00:18:52;;;;;;;27.40;20.40;;;;;;;;;;137462;1272;22243;-81
2023/04/30 00:21:53;;;;;;;29.10;21.10;;;;;;;;;;137323;1272;22211;-82
2023/04/30 00:24:54;;;;;;;30.60;21.20;;;;;;;;;;137471;1272;22540;-82
2023/04/30 00:27:56;;;;;;;29.10;21.30;;;;;;;;;;137517;1272;22189;-82
2023/04/30 00:30:57;;;;;;;25.90;20.90;;;;;;;;;;137358;1272;22852;-82
2023/04/30 01:05:05;;;;;;;23.20;16.90;;;;;;;;;;133712;1295;544982;-81
2023/04/30 01:08:07;;;;;;;20.80;17.00;;;;;;;;;;135924;1285;22288;-82
2023/04/30 01:11:10;;;;;;;23.90;17.60;;;;;;;;;;136132;1285;22564;-81
2023/04/30 01:14:12;;;;;;;19.60;17.30;;;;;;;;;;136024;1285;22389;-80
2023/04/30 01:17:15;;;;;;;20.00;16.60;;;;;;;;;;135701;1283;283237;-81
2023/04/30 01:20:17;;;;;;;19.80;16.10;;;;;;;;;;136223;1281;24208;-81
2023/04/30 01:23:20;;;;;;;22.30;17.10;;;;;;;;;;136845;1279;22226;-81
2023/04/30 01:26:22;;;;;;;20.60;16.80;;;;;;;;;;136366;1279;22584;-80
2023/04/30 01:29:25;;;;;;;21.20;17.40;;;;;;;;;;136722;1274;22563;-81
2023/04/30 01:32:28;;;;;;;23.30;17.40;;;;;;;;;;137433;1274;22200;-81
2023/04/30 01:35:31;;;;;;;18.50;16.60;;;;;;;;;;136749;1275;22436;-81
2023/04/30 01:38:33;;;;;;;21.60;18.50;;;;;;;;;;136850;1274;22180;-82
2023/04/30 01:41:36;;;;;;;23.60;20.00;;;;;;;;;;136988;1274;22550;-81
2023/04/30 01:44:38;;;;;;;22.50;18.80;;;;;;;;;;136807;1267;22541;-80
2023/04/30 01:47:41;;;;;;;20.60;17.60;;;;;;;;;;136585;1274;22212;-81
2023/04/30 01:50:43;;;;;;;19.70;16.80;;;;;;;;;;137070;1259;22556;-84
2023/04/30 01:53:49;;;;;;;19.90;17.40;;;;;;;;;;137074;1274;22657;-83
2023/04/30 01:56:51;;;;;;;17.60;15.50;;;;;;;;;;136707;1274;22670;-80
2023/04/30 01:59:54;;;;;;;19.50;17.30;;;;;;;;;;136849;1274;22564;-80
2023/04/30 02:02:56;;;;;;;20.50;17.40;;;;;;;;;;137308;1274;22593;-81
2023/04/30 02:05:59;;;;;;;18.80;16.90;;;;;;;;;;137363;1274;22249;-81
2023/04/30 02:09:04;;;;;;;18.60;16.70;;;;;;;;;;137292;1274;22316;-81
2023/04/30 02:12:06;;;;;;;22.20;19.20;;;;;;;;;;137393;1274;22503;-81
2023/04/30 02:15:11;;;;;;;19.80;17.50;;;;;;;;;;137378;1274;22704;-81
2023/04/30 02:18:14;;;;;;;21.60;19.00;;;;;;;;;;137348;1274;22481;-82
2023/04/30 02:21:16;;;;;;;23.40;19.70;;;;;;;;;;137239;1274;22900;-80
2023/04/30 02:24:19;;;;;;;24.30;19.90;;;;;;;;;;137281;1274;22545;-81
2023/04/30 02:27:22;;;;;;;25.30;20.00;;;;;;;;;;137301;1274;23038;-82
2023/04/30 02:30:24;;;;;;;24.50;20.80;;;;;;;;;;137396;1274;22552;-80
2023/04/30 02:33:26;;;;;;;25.60;21.90;;;;;;;;;;137335;1274;22152;-80
2023/04/30 02:36:32;;;;;;;24.30;20.80;;;;;;;;;;137322;1274;22403;-81
2023/04/30 02:39:35;;;;;;;25.50;20.60;;;;;;;;;;137325;1274;22588;-82
2023/04/30 02:42:37;;;;;;;22.70;19.00;;;;;;;;;;137416;1274;22219;-81
2023/04/30 02:45:40;;;;;;;25.20;18.90;;;;;;;;;;137318;1274;22527;-81
2023/04/30 02:48:42;;;;;;;23.50;19.10;;;;;;;;;;137324;1273;22125;-82
2023/04/30 02:51:45;;;;;;;21.70;18.90;;;;;;;;;;136964;1274;22565;-81
2023/04/30 02:54:47;;;;;;;19.70;17.00;;;;;;;;;;136648;1274;22961;-81
2023/04/30 02:57:52;;;;;;;18.10;15.30;;;;;;;;;;136724;1274;22579;-81
2023/04/30 03:00:55;;;;;;;20.20;16.10;;;;;;;;;;137105;1274;22450;-80
2023/04/30 03:03:58;;;;;;;14.20;12.80;;;;;;;;;;137375;1274;22537;-79
2023/04/30 03:07:02;;;;;;;13.20;11.80;;;;;;;;;;137236;1274;22575;-80
2023/04/30 03:10:05;;;;;;;11.90;10.90;;;;;;;;;;136636;1274;22810;-80
2023/04/30 03:13:09;;;;;;;10.10;9.10;;;;;;;;;;136896;1274;22514;-79
2023/04/30 03:16:12;;;;;;;11.00;10.00;;;;;;;;;;136571;1274;22567;-81
2023/04/30 03:19:14;;;;;;;11.50;10.50;;;;;;;;;;136212;1274;22560;-80
2023/04/30 03:22:18;;;;;;;10.30;9.40;;;;;;;;;;136687;1274;22613;-80
2023/04/30 03:25:21;;;;;;;10.50;9.60;;;;;;;;;;136559;1274;22587;-81
2023/04/30 03:28:23;;;;;;;12.20;11.00;;;;;;;;;;136544;1274;22185;-80
2023/04/30 03:31:26;;;;;;;12.40;11.30;;;;;;;;;;137487;1274;22407;-80
2023/04/30 03:34:30;;;;;;;11.60;10.50;;;;;;;;;;137240;1274;22247;-81
2023/04/30 03:37:33;;;;;;;12.40;10.70;;;;;;;;;;137306;1274;22289;-82
2023/04/30 03:40:36;;;;;;;10.80;9.80;;;;;;;;;;137266;1274;22584;-82
2023/04/30 03:43:38;;;;;;;12.60;11.50;;;;;;;;;;137443;1274;22289;-81
2023/04/30 03:46:41;;;;;;;14.30;12.90;;;;;;;;;;137395;1274;22996;-81
2023/04/30 03:49:43;;;;;;;15.60;14.10;;;;;;;;;;137353;1274;22557;-81
2023/04/30 03:52:46;;;;;;;18.30;15.20;;;;;;;;;;137411;1274;22178;-81
2023/04/30 03:55:48;;;;;;;19.10;17.20;;;;;;;;;;137294;1274;22410;-80
2023/04/30 03:58:51;;;;;;;18.30;16.50;;;;;;;;;;137389;1274;22244;-82
2023/04/30 04:01:54;;;;;;;20.80;17.90;;;;;;;;;;137366;1274;23143;-81
2023/04/30 04:04:56;;;;;;;25.60;20.90;;;;;;;;;;137249;1274;22280;-82
2023/04/30 04:07:59;;;;;;;29.10;21.10;;;;;;;;;;137343;1274;22404;-81
2023/04/30 04:11:01;;;;;;;27.30;21.40;;;;;;;;;;137420;1274;22236;-81
2023/04/30 04:14:04;;;;;;;27.50;22.60;;;;;;;;;;137294;1274;22575;-81
2023/04/30 04:17:07;;;;;;;26.90;22.70;;;;;;;;;;137183;1263;22362;-81
2023/04/30 04:20:09;;;;;;;42.50;26.80;;;;;;;;;;137016;1274;22559;-82
2023/04/30 04:23:12;;;;;;;35.00;26.30;;;;;;;;;;136630;1274;22859;-82
2023/04/30 04:26:15;;;;;;;33.10;24.30;;;;;;;;;;136490;1274;22517;-81
2023/04/30 04:29:23;;;;;;;35.60;24.00;;;;;;;;;;136298;1269;22537;-82
2023/04/30 04:32:29;;;;;;;32.50;23.60;;;;;;;;;;136618;1274;22552;-81
2023/04/30 04:35:34;;;;;;;32.60;23.80;;;;;;;;;;136390;1274;22541;-81
2023/04/30 04:38:37;;;;;;;36.40;24.70;;;;;;;;;;136856;1267;22550;-81
2023/04/30 04:41:40;;;;;;;33.10;25.40;;;;;;;;;;137524;1274;22344;-81
2023/04/30 04:44:42;;;;;;;38.70;27.50;;;;;;;;;;137178;1271;22539;-81
2023/04/30 04:47:45;;;;;;;33.10;27.20;;;;;;;;;;137002;1274;22559;-81
2023/04/30 04:50:48;;;;;;;41.40;28.40;;;;;;;;;;137438;1274;22444;-81
2023/04/30 04:53:51;;;;;;;41.50;26.30;;;;;;;;;;137178;1274;22476;-81
2023/04/30 04:56:53;;;;;;;39.20;27.50;;;;;;;;;;137187;1274;22783;-80
2023/04/30 04:59:56;;;;;;;35.10;25.20;;;;;;;;;;137589;1275;22199;-80
2023/04/30 05:02:58;;;;;;;33.50;25.40;;;;;;;;;;137234;1274;22214;-82
2023/04/30 05:06:01;;;;;;;38.10;28.50;;;;;;;;;;137309;1274;22401;-82
2023/04/30 05:09:05;;;;;;;33.50;25.50;;;;;;;;;;137299;1274;22586;-85
2023/04/30 05:12:08;;;;;;;;;;;;;;;;;;137303;1274;23178;-82
2023/04/30 05:15:11;;;;;;;32.00;24.10;;;;;;;;;;136991;1274;22435;-82
2023/04/30 05:18:14;;;;;;;34.00;23.90;;;;;;;;;;137361;1274;22261;-82
2023/04/30 05:21:16;;;;;;;30.10;23.80;;;;;;;;;;136915;1271;22555;-81
2023/04/30 05:24:19;;;;;;;27.40;23.10;;;;;;;;;;137017;1274;22432;-82
2023/04/30 05:27:22;;;;;;;32.50;22.60;;;;;;;;;;137305;1274;22791;-81
2023/04/30 05:30:25;;;;;;;28.10;22.60;;;;;;;;;;136565;1263;22635;-82
2023/04/30 05:33:28;;;;;;;26.10;22.90;;;;;;;;;;136726;1267;22609;-81
2023/04/30 05:36:33;;;;;;;28.40;21.10;;;;;;;;;;136697;1274;22568;-82
